sensor_id;sensor_type;location;lat;lon;timestamp;P1;durP1;ratioP1;P2;durP2;ratioP2
38715;SDS011;24833;49.324;8.694;2023-04-08T00:01:05;3.65;;;3.03;;
38715;SDS011;24833;49.324;8.694;2023-04-08T00:03:32;3.22;;;2.80;;
38715;SDS011;24833;49.324;8.694;2023-04-08T00:05:59;4.15;;;2.90;;
38715;SDS011;24833;49.324;8.694;2023-04-08T00:08:28;3.53;;;2.60;;
38715;SDS011;24833;49.324;8.694;2023-04-08T00:10:55;3.58;;;2.75;;
38715;SDS011;24833;49.324;8.694;2023-04-08T00:13:23;3.35;;;2.85;;
38715;SDS011;24833;49.324;8.694;2023-04-08T00:15:50;2.67;;;2.47;;
38715;SDS011;24833;49.324;8.694;2023-04-08T00:18:17;4.05;;;2.88;;
38715;SDS011;24833;49.324;8.694;2023-04-08T00:20:44;3.10;;;2.80;;
38715;SDS011;24833;49.324;8.694;2023-04-08T00:23:11;3.22;;;2.50;;
38715;SDS011;24833;49.324;8.694;2023-04-08T00:25:38;2.85;;;2.60;;
38715;SDS011;24833;49.324;8.694;2023-04-08T00:28:05;3.03;;;2.60;;
38715;SDS011;24833;49.324;8.694;2023-04-08T00:30:32;3.47;;;2.75;;
38715;SDS011;24833;49.324;8.694;2023-04-08T00:33:01;3.13;;;2.83;;
38715;SDS011;24833;49.324;8.694;2023-04-08T00:35:28;3.65;;;2.95;;
38715;SDS011;24833;49.324;8.694;2023-04-08T00:37:55;2.60;;;2.40;;
38715;SDS011;24833;49.324;8.694;2023-04-08T00:40:22;3.60;;;2.92;;
38715;SDS011;24833;49.324;8.694;2023-04-08T00:42:49;2.53;;;2.33;;
38715;SDS011;24833;49.324;8.694;2023-04-08T00:45:16;3.03;;;2.72;;
38715;SDS011;24833;49.324;8.694;2023-04-08T00:47:43;3.97;;;2.92;;
38715;SDS011;24833;49.324;8.694;2023-04-08T00:50:11;3.67;;;2.88;;
38715;SDS011;24833;49.324;8.694;2023-04-08T00:52:38;2.80;;;2.55;;
38715;SDS011;24833;49.324;8.694;2023-04-08T00:55:06;3.08;;;2.58;;
38715;SDS011;24833;49.324;8.694;2023-04-08T00:57:33;2.97;;;2.60;;
38715;SDS011;24833;49.324;8.694;2023-04-08T01:00:00;3.25;;;2.75;;
38715;SDS011;24833;49.324;8.694;2023-04-08T01:02:35;4.13;;;3.00;;
38715;SDS011;24833;49.324;8.694;2023-04-08T01:08:05;3.53;;;2.58;;
38715;SDS011;24833;49.324;8.694;2023-04-08T01:10:33;3.13;;;2.28;;
38715;SDS011;24833;49.324;8.694;2023-04-08T01:13:07;3.33;;;2.65;;
38715;SDS011;24833;49.324;8.694;2023-04-08T01:15:37;4.00;;;3.03;;
38715;SDS011;24833;49.324;8.694;2023-04-08T01:18:07;2.90;;;2.55;;
38715;SDS011;24833;49.324;8.694;2023-04-08T01:20:39;3.80;;;2.75;;
38715;SDS011;24833;49.324;8.694;2023-04-08T01:23:12;2.63;;;2.30;;
38715;SDS011;24833;49.324;8.694;2023-04-08T01:25:54;2.67;;;2.45;;
38715;SDS011;24833;49.324;8.694;2023-04-08T01:28:22;3.10;;;2.80;;
38715;SDS011;24833;49.324;8.694;2023-04-08T01:33:25;2.42;;;2.22;;
38715;SDS011;24833;49.324;8.694;2023-04-08T01:35:54;3.55;;;2.60;;
38715;SDS011;24833;49.324;8.694;2023-04-08T01:38:23;4.03;;;2.88;;
38715;SDS011;24833;49.324;8.694;2023-04-08T01:40:52;4.45;;;3.10;;
38715;SDS011;24833;49.324;8.694;2023-04-08T01:43:21;3.78;;;2.67;;
38715;SDS011;24833;49.324;8.694;2023-04-08T01:45:49;2.92;;;2.63;;
38715;SDS011;24833;49.324;8.694;2023-04-08T01:48:19;2.77;;;2.43;;
38715;SDS011;24833;49.324;8.694;2023-04-08T01:50:47;3.67;;;2.80;;
38715;SDS011;24833;49.324;8.694;2023-04-08T01:53:16;3.20;;;2.60;;
38715;SDS011;24833;49.324;8.694;2023-04-08T01:55:43;3.10;;;2.50;;
38715;SDS011;24833;49.324;8.694;2023-04-08T01:58:17;2.45;;;2.25;;
38715;SDS011;24833;49.324;8.694;2023-04-08T02:00:47;3.17;;;2.58;;
38715;SDS011;24833;49.324;8.694;2023-04-08T02:03:17;2.85;;;2.50;;
38715;SDS011;24833;49.324;8.694;2023-04-08T02:05:48;3.13;;;2.55;;
38715;SDS011;24833;49.324;8.694;2023-04-08T02:08:15;3.42;;;2.95;;
38715;SDS011;24833;49.324;8.694;2023-04-08T02:10:42;2.58;;;2.33;;
38715;SDS011;24833;49.324;8.694;2023-04-08T02:13:09;2.72;;;2.47;;
38715;SDS011;24833;49.324;8.694;2023-04-08T02:15:37;3.00;;;2.70;;
38715;SDS011;24833;49.324;8.694;2023-04-08T02:18:24;3.30;;;2.53;;
38715;SDS011;24833;49.324;8.694;2023-04-08T02:21:13;3.30;;;2.60;;
38715;SDS011;24833;49.324;8.694;2023-04-08T02:23:44;3.63;;;2.95;;
38715;SDS011;24833;49.324;8.694;2023-04-08T02:26:15;3.08;;;2.65;;
38715;SDS011;24833;49.324;8.694;2023-04-08T02:28:44;3.17;;;2.67;;
38715;SDS011;24833;49.324;8.694;2023-04-08T02:31:15;3.17;;;2.50;;
38715;SDS011;24833;49.324;8.694;2023-04-08T02:33:44;3.05;;;2.70;;
38715;SDS011;24833;49.324;8.694;2023-04-08T02:36:11;3.17;;;2.72;;
38715;SDS011;24833;49.324;8.694;2023-04-08T02:38:40;3.58;;;2.90;;
38715;SDS011;24833;49.324;8.694;2023-04-08T02:41:07;3.92;;;2.65;;
38715;SDS011;24833;49.324;8.694;2023-04-08T02:43:34;4.03;;;2.97;;
38715;SDS011;24833;49.324;8.694;2023-04-08T02:46:04;4.28;;;2.70;;
38715;SDS011;24833;49.324;8.694;2023-04-08T02:48:34;3.05;;;2.75;;
38715;SDS011;24833;49.324;8.694;2023-04-08T02:51:01;3.40;;;2.85;;
38715;SDS011;24833;49.324;8.694;2023-04-08T02:53:28;3.40;;;2.75;;
38715;SDS011;24833;49.324;8.694;2023-04-08T02:55:56;3.92;;;2.25;;
38715;SDS011;24833;49.324;8.694;2023-04-08T02:58:23;3.10;;;2.80;;
38715;SDS011;24833;49.324;8.694;2023-04-08T03:00:49;3.20;;;2.80;;
38715;SDS011;24833;49.324;8.694;2023-04-08T03:03:17;3.45;;;2.85;;
38715;SDS011;24833;49.324;8.694;2023-04-08T03:05:44;3.20;;;2.88;;
38715;SDS011;24833;49.324;8.694;2023-04-08T03:08:11;2.95;;;2.60;;
38715;SDS011;24833;49.324;8.694;2023-04-08T03:10:38;3.58;;;2.95;;
38715;SDS011;24833;49.324;8.694;2023-04-08T03:13:05;2.78;;;2.50;;
38715;SDS011;24833;49.324;8.694;2023-04-08T03:15:32;2.88;;;2.17;;
38715;SDS011;24833;49.324;8.694;2023-04-08T03:17:58;2.80;;;2.33;;
38715;SDS011;24833;49.324;8.694;2023-04-08T03:20:26;3.55;;;2.85;;
38715;SDS011;24833;49.324;8.694;2023-04-08T03:22:53;2.72;;;2.50;;
38715;SDS011;24833;49.324;8.694;2023-04-08T03:25:19;3.10;;;2.75;;
38715;SDS011;24833;49.324;8.694;2023-04-08T03:27:46;2.95;;;2.42;;
38715;SDS011;24833;49.324;8.694;2023-04-08T03:30:14;2.65;;;2.45;;
38715;SDS011;24833;49.324;8.694;2023-04-08T03:32:41;3.63;;;2.88;;
38715;SDS011;24833;49.324;8.694;2023-04-08T03:35:08;2.95;;;2.55;;
38715;SDS011;24833;49.324;8.694;2023-04-08T03:37:35;2.42;;;2.22;;
38715;SDS011;24833;49.324;8.694;2023-04-08T03:40:02;3.60;;;2.80;;
38715;SDS011;24833;49.324;8.694;2023-04-08T03:42:30;2.90;;;2.50;;
38715;SDS011;24833;49.324;8.694;2023-04-08T03:44:57;4.10;;;2.45;;
38715;SDS011;24833;49.324;8.694;2023-04-08T03:47:24;3.50;;;2.22;;
38715;SDS011;24833;49.324;8.694;2023-04-08T03:49:52;2.78;;;2.40;;
38715;SDS011;24833;49.324;8.694;2023-04-08T03:52:22;2.83;;;2.40;;
38715;SDS011;24833;49.324;8.694;2023-04-08T03:54:50;2.30;;;2.10;;
38715;SDS011;24833;49.324;8.694;2023-04-08T03:57:17;4.07;;;2.58;;
38715;SDS011;24833;49.324;8.694;2023-04-08T03:59:44;3.33;;;2.67;;
38715;SDS011;24833;49.324;8.694;2023-04-08T04:02:10;3.28;;;2.38;;
38715;SDS011;24833;49.324;8.694;2023-04-08T04:04:38;3.05;;;2.55;;
38715;SDS011;24833;49.324;8.694;2023-04-08T04:07:05;3.00;;;2.30;;
38715;SDS011;24833;49.324;8.694;2023-04-08T04:09:32;3.05;;;2.72;;
38715;SDS011;24833;49.324;8.694;2023-04-08T04:11:59;2.90;;;2.53;;
38715;SDS011;24833;49.324;8.694;2023-04-08T04:14:26;3.45;;;2.85;;
38715;SDS011;24833;49.324;8.694;2023-04-08T04:16:53;3.67;;;2.78;;
38715;SDS011;24833;49.324;8.694;2023-04-08T04:19:20;3.20;;;2.72;;
38715;SDS011;24833;49.324;8.694;2023-04-08T04:21:47;3.63;;;2.67;;
38715;SDS011;24833;49.324;8.694;2023-04-08T04:24:14;2.65;;;2.45;;
38715;SDS011;24833;49.324;8.694;2023-04-08T04:26:41;3.13;;;2.75;;
38715;SDS011;24833;49.324;8.694;2023-04-08T04:29:08;3.30;;;2.80;;
38715;SDS011;24833;49.324;8.694;2023-04-08T04:31:35;3.63;;;2.70;;
38715;SDS011;24833;49.324;8.694;2023-04-08T04:34:02;3.38;;;2.72;;
38715;SDS011;24833;49.324;8.694;2023-04-08T04:36:29;2.97;;;2.78;;
38715;SDS011;24833;49.324;8.694;2023-04-08T04:38:57;2.50;;;2.30;;
38715;SDS011;24833;49.324;8.694;2023-04-08T04:41:24;2.92;;;2.47;;
38715;SDS011;24833;49.324;8.694;2023-04-08T04:43:52;3.80;;;2.83;;
38715;SDS011;24833;49.324;8.694;2023-04-08T04:46:19;3.10;;;2.80;;
38715;SDS011;24833;49.324;8.694;2023-04-08T04:48:46;4.53;;;2.80;;
38715;SDS011;24833;49.324;8.694;2023-04-08T04:51:13;3.40;;;2.72;;
38715;SDS011;24833;49.324;8.694;2023-04-08T04:53:40;3.25;;;2.75;;
38715;SDS011;24833;49.324;8.694;2023-04-08T04:56:07;3.50;;;2.88;;
38715;SDS011;24833;49.324;8.694;2023-04-08T04:58:34;2.85;;;2.55;;
38715;SDS011;24833;49.324;8.694;2023-04-08T05:01:01;2.95;;;2.60;;
38715;SDS011;24833;49.324;8.694;2023-04-08T05:03:28;3.22;;;2.83;;
38715;SDS011;24833;49.324;8.694;2023-04-08T05:05:56;3.15;;;2.75;;
38715;SDS011;24833;49.324;8.694;2023-04-08T05:08:23;4.47;;;2.75;;
38715;SDS011;24833;49.324;8.694;2023-04-08T05:10:53;3.08;;;2.63;;
38715;SDS011;24833;49.324;8.694;2023-04-08T05:13:21;3.10;;;2.72;;
38715;SDS011;24833;49.324;8.694;2023-04-08T05:15:48;2.95;;;2.65;;
38715;SDS011;24833;49.324;8.694;2023-04-08T05:18:15;3.40;;;3.10;;
38715;SDS011;24833;49.324;8.694;2023-04-08T05:20:42;3.35;;;3.03;;
38715;SDS011;24833;49.324;8.694;2023-04-08T05:23:09;2.92;;;2.63;;
38715;SDS011;24833;49.324;8.694;2023-04-08T05:25:36;3.97;;;3.08;;
38715;SDS011;24833;49.324;8.694;2023-04-08T05:28:03;2.97;;;2.67;;
38715;SDS011;24833;49.324;8.694;2023-04-08T05:30:30;3.53;;;2.80;;
38715;SDS011;24833;49.324;8.694;2023-04-08T05:32:57;3.25;;;2.92;;
38715;SDS011;24833;49.324;8.694;2023-04-08T05:35:26;3.40;;;3.10;;
38715;SDS011;24833;49.324;8.694;2023-04-08T05:37:54;3.50;;;2.95;;
38715;SDS011;24833;49.324;8.694;2023-04-08T05:40:21;3.13;;;2.67;;
38715;SDS011;24833;49.324;8.694;2023-04-08T05:42:48;3.38;;;2.70;;
38715;SDS011;24833;49.324;8.694;2023-04-08T05:45:15;3.03;;;2.72;;
38715;SDS011;24833;49.324;8.694;2023-04-08T05:47:42;3.25;;;2.95;;
38715;SDS011;24833;49.324;8.694;2023-04-08T05:50:09;3.72;;;2.83;;
38715;SDS011;24833;49.324;8.694;2023-04-08T05:52:40;3.25;;;2.67;;
38715;SDS011;24833;49.324;8.694;2023-04-08T05:55:10;3.13;;;2.83;;
38715;SDS011;24833;49.324;8.694;2023-04-08T05:57:40;2.88;;;2.67;;
38715;SDS011;24833;49.324;8.694;2023-04-08T06:00:08;3.72;;;3.33;;
38715;SDS011;24833;49.324;8.694;2023-04-08T06:02:36;3.58;;;3.28;;
38715;SDS011;24833;49.324;8.694;2023-04-08T06:05:04;3.50;;;3.03;;
38715;SDS011;24833;49.324;8.694;2023-04-08T06:07:32;4.22;;;3.28;;
38715;SDS011;24833;49.324;8.694;2023-04-08T06:09:59;3.72;;;3.22;;
38715;SDS011;24833;49.324;8.694;2023-04-08T06:12:27;3.40;;;3.10;;
38715;SDS011;24833;49.324;8.694;2023-04-08T06:14:54;3.08;;;2.75;;
38715;SDS011;24833;49.324;8.694;2023-04-08T06:17:22;3.47;;;3.17;;
38715;SDS011;24833;49.324;8.694;2023-04-08T06:19:49;3.15;;;2.85;;
38715;SDS011;24833;49.324;8.694;2023-04-08T06:22:16;3.45;;;3.15;;
38715;SDS011;24833;49.324;8.694;2023-04-08T06:24:43;3.13;;;2.83;;
38715;SDS011;24833;49.324;8.694;2023-04-08T06:27:12;3.65;;;2.85;;
38715;SDS011;24833;49.324;8.694;2023-04-08T06:29:39;4.72;;;3.22;;
38715;SDS011;24833;49.324;8.694;2023-04-08T06:32:08;3.65;;;3.35;;
38715;SDS011;24833;49.324;8.694;2023-04-08T06:34:36;3.42;;;3.08;;
38715;SDS011;24833;49.324;8.694;2023-04-08T06:37:03;4.30;;;3.35;;
38715;SDS011;24833;49.324;8.694;2023-04-08T06:39:31;4.45;;;3.45;;
38715;SDS011;24833;49.324;8.694;2023-04-08T06:41:59;4.07;;;3.28;;
38715;SDS011;24833;49.324;8.694;2023-04-08T06:44:35;4.82;;;3.63;;
38715;SDS011;24833;49.324;8.694;2023-04-08T06:47:02;3.95;;;3.60;;
38715;SDS011;24833;49.324;8.694;2023-04-08T06:49:29;3.38;;;2.90;;
38715;SDS011;24833;49.324;8.694;2023-04-08T06:51:56;4.70;;;3.28;;
38715;SDS011;24833;49.324;8.694;2023-04-08T06:54:23;3.80;;;3.47;;
38715;SDS011;24833;49.324;8.694;2023-04-08T06:56:50;3.40;;;3.08;;
38715;SDS011;24833;49.324;8.694;2023-04-08T06:59:17;3.60;;;3.25;;
38715;SDS011;24833;49.324;8.694;2023-04-08T07:01:44;4.93;;;3.60;;
38715;SDS011;24833;49.324;8.694;2023-04-08T07:04:12;4.35;;;3.47;;
38715;SDS011;24833;49.324;8.694;2023-04-08T07:06:39;4.22;;;3.53;;
38715;SDS011;24833;49.324;8.694;2023-04-08T07:09:06;4.40;;;3.70;;
38715;SDS011;24833;49.324;8.694;2023-04-08T07:11:33;3.75;;;3.30;;
38715;SDS011;24833;49.324;8.694;2023-04-08T07:14:00;3.78;;;3.47;;
38715;SDS011;24833;49.324;8.694;2023-04-08T07:16:28;5.18;;;4.05;;
38715;SDS011;24833;49.324;8.694;2023-04-08T07:18:55;4.28;;;3.88;;
38715;SDS011;24833;49.324;8.694;2023-04-08T07:21:22;6.22;;;4.13;;
38715;SDS011;24833;49.324;8.694;2023-04-08T07:23:49;4.63;;;4.15;;
38715;SDS011;24833;49.324;8.694;2023-04-08T07:26:16;4.88;;;3.63;;
38715;SDS011;24833;49.324;8.694;2023-04-08T07:28:43;4.60;;;4.03;;
38715;SDS011;24833;49.324;8.694;2023-04-08T07:31:14;4.72;;;4.22;;
38715;SDS011;24833;49.324;8.694;2023-04-08T07:33:43;4.80;;;3.75;;
38715;SDS011;24833;49.324;8.694;2023-04-08T07:36:11;4.45;;;3.85;;
38715;SDS011;24833;49.324;8.694;2023-04-08T07:38:39;3.75;;;3.35;;
38715;SDS011;24833;49.324;8.694;2023-04-08T07:41:06;4.13;;;3.72;;
38715;SDS011;24833;49.324;8.694;2023-04-08T07:43:33;5.10;;;3.50;;
38715;SDS011;24833;49.324;8.694;2023-04-08T07:46:02;5.07;;;4.50;;
38715;SDS011;24833;49.324;8.694;2023-04-08T07:48:31;5.25;;;4.57;;
38715;SDS011;24833;49.324;8.694;2023-04-08T07:51:02;4.55;;;4.15;;
38715;SDS011;24833;49.324;8.694;2023-04-08T07:53:36;4.55;;;4.05;;
38715;SDS011;24833;49.324;8.694;2023-04-08T07:56:14;4.80;;;4.35;;
38715;SDS011;24833;49.324;8.694;2023-04-08T07:58:43;5.07;;;3.80;;
38715;SDS011;24833;49.324;8.694;2023-04-08T08:01:18;5.72;;;3.85;;
38715;SDS011;24833;49.324;8.694;2023-04-08T08:03:48;4.88;;;4.38;;
38715;SDS011;24833;49.324;8.694;2023-04-08T08:06:18;4.88;;;4.38;;
38715;SDS011;24833;49.324;8.694;2023-04-08T08:08:45;4.90;;;4.40;;
38715;SDS011;24833;49.324;8.694;2023-04-08T08:11:13;5.10;;;4.50;;
38715;SDS011;24833;49.324;8.694;2023-04-08T08:13:39;5.22;;;4.47;;
38715;SDS011;24833;49.324;8.694;2023-04-08T08:16:06;5.03;;;4.53;;
38715;SDS011;24833;49.324;8.694;2023-04-08T08:18:37;5.90;;;4.97;;
38715;SDS011;24833;49.324;8.694;2023-04-08T08:21:05;5.20;;;4.45;;
38715;SDS011;24833;49.324;8.694;2023-04-08T08:23:33;6.28;;;5.32;;
38715;SDS011;24833;49.324;8.694;2023-04-08T08:26:03;6.30;;;5.07;;
38715;SDS011;24833;49.324;8.694;2023-04-08T08:28:32;6.97;;;4.68;;
38715;SDS011;24833;49.324;8.694;2023-04-08T08:30:59;5.57;;;4.55;;
38715;SDS011;24833;49.324;8.694;2023-04-08T08:33:27;7.05;;;4.68;;
38715;SDS011;24833;49.324;8.694;2023-04-08T08:35:54;5.93;;;5.18;;
38715;SDS011;24833;49.324;8.694;2023-04-08T08:38:23;5.78;;;4.65;;
38715;SDS011;24833;49.324;8.694;2023-04-08T08:40:54;5.25;;;4.75;;
38715;SDS011;24833;49.324;8.694;2023-04-08T08:43:25;5.63;;;4.97;;
38715;SDS011;24833;49.324;8.694;2023-04-08T08:45:54;6.43;;;5.80;;
38715;SDS011;24833;49.324;8.694;2023-04-08T08:48:21;5.75;;;5.25;;
38715;SDS011;24833;49.324;8.694;2023-04-08T08:50:48;6.63;;;5.22;;
38715;SDS011;24833;49.324;8.694;2023-04-08T08:53:15;5.70;;;4.93;;
38715;SDS011;24833;49.324;8.694;2023-04-08T08:55:44;5.57;;;5.07;;
38715;SDS011;24833;49.324;8.694;2023-04-08T08:58:31;5.43;;;4.85;;
38715;SDS011;24833;49.324;8.694;2023-04-08T09:00:58;5.60;;;4.95;;
38715;SDS011;24833;49.324;8.694;2023-04-08T09:03:26;5.00;;;4.50;;
38715;SDS011;24833;49.324;8.694;2023-04-08T09:05:59;5.85;;;5.00;;
38715;SDS011;24833;49.324;8.694;2023-04-08T09:08:34;5.40;;;4.82;;
38715;SDS011;24833;49.324;8.694;2023-04-08T09:11:12;6.30;;;4.97;;
38715;SDS011;24833;49.324;8.694;2023-04-08T09:13:44;5.53;;;5.03;;
38715;SDS011;24833;49.324;8.694;2023-04-08T09:16:13;4.93;;;4.43;;
38715;SDS011;24833;49.324;8.694;2023-04-08T09:18:46;5.63;;;5.10;;
38715;SDS011;24833;49.324;8.694;2023-04-08T09:21:15;5.45;;;4.53;;
38715;SDS011;24833;49.324;8.694;2023-04-08T09:23:44;5.22;;;4.72;;
38715;SDS011;24833;49.324;8.694;2023-04-08T09:26:15;5.60;;;4.40;;
38715;SDS011;24833;49.324;8.694;2023-04-08T09:29:01;5.78;;;4.78;;
38715;SDS011;24833;49.324;8.694;2023-04-08T09:31:54;5.93;;;4.63;;
38715;SDS011;24833;49.324;8.694;2023-04-08T09:34:23;6.47;;;4.53;;
38715;SDS011;24833;49.324;8.694;2023-04-08T09:36:52;4.97;;;4.43;;
38715;SDS011;24833;49.324;8.694;2023-04-08T09:39:21;6.15;;;4.53;;
38715;SDS011;24833;49.324;8.694;2023-04-08T09:41:48;6.10;;;4.72;;
38715;SDS011;24833;49.324;8.694;2023-04-08T09:44:20;6.07;;;5.10;;
38715;SDS011;24833;49.324;8.694;2023-04-08T09:46:55;5.32;;;4.70;;
38715;SDS011;24833;49.324;8.694;2023-04-08T09:49:53;5.47;;;4.97;;
38715;SDS011;24833;49.324;8.694;2023-04-08T09:52:23;5.53;;;5.00;;
38715;SDS011;24833;49.324;8.694;2023-04-08T09:55:07;5.72;;;4.32;;
38715;SDS011;24833;49.324;8.694;2023-04-08T09:57:43;5.25;;;4.60;;
38715;SDS011;24833;49.324;8.694;2023-04-08T10:00:28;5.70;;;5.07;;
38715;SDS011;24833;49.324;8.694;2023-04-08T10:06:14;6.13;;;4.45;;
38715;SDS011;24833;49.324;8.694;2023-04-08T10:08:42;4.45;;;4.05;;
38715;SDS011;24833;49.324;8.694;2023-04-08T10:11:10;5.47;;;3.88;;
38715;SDS011;24833;49.324;8.694;2023-04-08T10:13:37;5.57;;;4.70;;
38715;SDS011;24833;49.324;8.694;2023-04-08T10:16:23;5.40;;;4.13;;
38715;SDS011;24833;49.324;8.694;2023-04-08T10:18:53;4.95;;;4.45;;
38715;SDS011;24833;49.324;8.694;2023-04-08T10:21:30;5.45;;;4.40;;
38715;SDS011;24833;49.324;8.694;2023-04-08T10:24:06;5.90;;;4.68;;
38715;SDS011;24833;49.324;8.694;2023-04-08T10:26:41;5.10;;;4.15;;
38715;SDS011;24833;49.324;8.694;2023-04-08T10:31:46;5.20;;;4.45;;
38715;SDS011;24833;49.324;8.694;2023-04-08T10:34:16;4.97;;;4.38;;
38715;SDS011;24833;49.324;8.694;2023-04-08T10:36:44;6.25;;;4.90;;
38715;SDS011;24833;49.324;8.694;2023-04-08T10:39:12;6.50;;;4.47;;
38715;SDS011;24833;49.324;8.694;2023-04-08T10:41:41;4.82;;;4.32;;
38715;SDS011;24833;49.324;8.694;2023-04-08T10:44:19;6.43;;;4.55;;
38715;SDS011;24833;49.324;8.694;2023-04-08T10:46:52;5.97;;;4.35;;
38715;SDS011;24833;49.324;8.694;2023-04-08T10:49:20;5.55;;;4.68;;
38715;SDS011;24833;49.324;8.694;2023-04-08T10:51:48;7.95;;;4.65;;
38715;SDS011;24833;49.324;8.694;2023-04-08T10:54:15;4.45;;;3.97;;
38715;SDS011;24833;49.324;8.694;2023-04-08T10:56:47;4.82;;;4.38;;
38715;SDS011;24833;49.324;8.694;2023-04-08T10:59:27;4.78;;;4.22;;
38715;SDS011;24833;49.324;8.694;2023-04-08T11:02:00;5.93;;;4.63;;
38715;SDS011;24833;49.324;8.694;2023-04-08T11:04:28;4.93;;;4.20;;
38715;SDS011;24833;49.324;8.694;2023-04-08T11:06:55;5.65;;;4.10;;
38715;SDS011;24833;49.324;8.694;2023-04-08T11:09:23;5.28;;;4.20;;
38715;SDS011;24833;49.324;8.694;2023-04-08T11:11:50;5.70;;;4.72;;
38715;SDS011;24833;49.324;8.694;2023-04-08T11:14:18;5.45;;;4.03;;
38715;SDS011;24833;49.324;8.694;2023-04-08T11:16:47;6.78;;;4.57;;
38715;SDS011;24833;49.324;8.694;2023-04-08T11:19:14;5.72;;;5.00;;
38715;SDS011;24833;49.324;8.694;2023-04-08T11:21:41;6.45;;;5.00;;
38715;SDS011;24833;49.324;8.694;2023-04-08T11:24:08;4.88;;;4.38;;
38715;SDS011;24833;49.324;8.694;2023-04-08T11:26:41;5.30;;;4.57;;
38715;SDS011;24833;49.324;8.694;2023-04-08T11:29:11;5.15;;;4.43;;
38715;SDS011;24833;49.324;8.694;2023-04-08T11:31:40;8.13;;;4.20;;
38715;SDS011;24833;49.324;8.694;2023-04-08T11:34:09;7.38;;;4.68;;
38715;SDS011;24833;49.324;8.694;2023-04-08T11:36:38;4.72;;;4.10;;
38715;SDS011;24833;49.324;8.694;2023-04-08T11:39:07;5.65;;;4.00;;
38715;SDS011;24833;49.324;8.694;2023-04-08T11:41:35;7.18;;;4.50;;
38715;SDS011;24833;49.324;8.694;2023-04-08T11:44:07;6.00;;;4.75;;
38715;SDS011;24833;49.324;8.694;2023-04-08T11:46:34;5.85;;;4.13;;
38715;SDS011;24833;49.324;8.694;2023-04-08T11:51:34;5.40;;;4.32;;
38715;SDS011;24833;49.324;8.694;2023-04-08T11:54:30;3.58;;;3.28;;
38715;SDS011;24833;49.324;8.694;2023-04-08T11:56:58;4.43;;;3.67;;
38715;SDS011;24833;49.324;8.694;2023-04-08T11:59:26;6.53;;;4.38;;
38715;SDS011;24833;49.324;8.694;2023-04-08T12:01:55;5.60;;;4.75;;
38715;SDS011;24833;49.324;8.694;2023-04-08T12:04:22;4.68;;;4.15;;
38715;SDS011;24833;49.324;8.694;2023-04-08T12:06:49;5.38;;;4.13;;
38715;SDS011;24833;49.324;8.694;2023-04-08T12:09:17;5.40;;;4.13;;
38715;SDS011;24833;49.324;8.694;2023-04-08T12:11:44;4.22;;;3.83;;
38715;SDS011;24833;49.324;8.694;2023-04-08T12:14:11;5.03;;;4.10;;
38715;SDS011;24833;49.324;8.694;2023-04-08T12:16:39;4.72;;;3.67;;
38715;SDS011;24833;49.324;8.694;2023-04-08T12:19:06;4.53;;;3.95;;
38715;SDS011;24833;49.324;8.694;2023-04-08T12:21:33;7.93;;;3.92;;
38715;SDS011;24833;49.324;8.694;2023-04-08T12:24:01;5.93;;;3.83;;
38715;SDS011;24833;49.324;8.694;2023-04-08T12:26:28;5.07;;;4.18;;
38715;SDS011;24833;49.324;8.694;2023-04-08T12:28:55;4.45;;;3.30;;
38715;SDS011;24833;49.324;8.694;2023-04-08T12:31:22;4.38;;;3.97;;
38715;SDS011;24833;49.324;8.694;2023-04-08T12:33:49;4.25;;;3.80;;
38715;SDS011;24833;49.324;8.694;2023-04-08T12:36:16;5.00;;;3.65;;
38715;SDS011;24833;49.324;8.694;2023-04-08T12:38:43;3.95;;;3.50;;
38715;SDS011;24833;49.324;8.694;2023-04-08T12:41:11;5.03;;;3.38;;
38715;SDS011;24833;49.324;8.694;2023-04-08T12:43:38;4.22;;;3.60;;
38715;SDS011;24833;49.324;8.694;2023-04-08T12:46:05;5.15;;;3.38;;
38715;SDS011;24833;49.324;8.694;2023-04-08T12:48:32;4.75;;;3.45;;
38715;SDS011;24833;49.324;8.694;2023-04-08T12:50:59;4.10;;;3.58;;
38715;SDS011;24833;49.324;8.694;2023-04-08T12:53:26;4.80;;;3.38;;
38715;SDS011;24833;49.324;8.694;2023-04-08T12:55:53;4.72;;;3.40;;
38715;SDS011;24833;49.324;8.694;2023-04-08T12:58:23;4.60;;;4.07;;
38715;SDS011;24833;49.324;8.694;2023-04-08T13:00:53;4.03;;;3.40;;
38715;SDS011;24833;49.324;8.694;2023-04-08T13:03:20;5.05;;;3.88;;
38715;SDS011;24833;49.324;8.694;2023-04-08T13:05:47;4.57;;;3.60;;
38715;SDS011;24833;49.324;8.694;2023-04-08T13:08:14;6.20;;;3.88;;
38715;SDS011;24833;49.324;8.694;2023-04-08T13:10:42;5.13;;;3.70;;
38715;SDS011;24833;49.324;8.694;2023-04-08T13:13:09;5.20;;;3.78;;
38715;SDS011;24833;49.324;8.694;2023-04-08T13:15:39;3.65;;;3.05;;
38715;SDS011;24833;49.324;8.694;2023-04-08T13:18:06;4.75;;;3.35;;
38715;SDS011;24833;49.324;8.694;2023-04-08T13:20:33;4.03;;;3.35;;
38715;SDS011;24833;49.324;8.694;2023-04-08T13:23:00;4.40;;;3.42;;
38715;SDS011;24833;49.324;8.694;2023-04-08T13:25:27;4.57;;;3.42;;
38715;SDS011;24833;49.324;8.694;2023-04-08T13:27:54;4.47;;;3.15;;
38715;SDS011;24833;49.324;8.694;2023-04-08T13:30:22;4.45;;;3.50;;
38715;SDS011;24833;49.324;8.694;2023-04-08T13:32:49;3.42;;;3.05;;
38715;SDS011;24833;49.324;8.694;2023-04-08T13:35:16;3.55;;;2.78;;
38715;SDS011;24833;49.324;8.694;2023-04-08T13:37:43;5.60;;;3.22;;
38715;SDS011;24833;49.324;8.694;2023-04-08T13:40:10;3.80;;;2.92;;
38715;SDS011;24833;49.324;8.694;2023-04-08T13:42:37;4.32;;;3.40;;
38715;SDS011;24833;49.324;8.694;2023-04-08T13:45:04;7.00;;;3.30;;
38715;SDS011;24833;49.324;8.694;2023-04-08T13:47:32;9.45;;;3.70;;
38715;SDS011;24833;49.324;8.694;2023-04-08T13:50:02;4.47;;;3.40;;
38715;SDS011;24833;49.324;8.694;2023-04-08T13:52:29;5.53;;;3.05;;
38715;SDS011;24833;49.324;8.694;2023-04-08T13:54:56;5.55;;;3.92;;
38715;SDS011;24833;49.324;8.694;2023-04-08T13:57:23;6.50;;;3.67;;
38715;SDS011;24833;49.324;8.694;2023-04-08T13:59:50;3.40;;;2.90;;
38715;SDS011;24833;49.324;8.694;2023-04-08T14:02:18;4.88;;;2.92;;
38715;SDS011;24833;49.324;8.694;2023-04-08T14:04:45;3.97;;;3.03;;
38715;SDS011;24833;49.324;8.694;2023-04-08T14:07:13;3.33;;;2.55;;
38715;SDS011;24833;49.324;8.694;2023-04-08T14:09:40;3.53;;;2.70;;
38715;SDS011;24833;49.324;8.694;2023-04-08T14:12:07;3.00;;;2.65;;
38715;SDS011;24833;49.324;8.694;2023-04-08T14:14:35;4.63;;;3.17;;
38715;SDS011;24833;49.324;8.694;2023-04-08T14:17:02;3.60;;;2.70;;
38715;SDS011;24833;49.324;8.694;2023-04-08T14:19:29;3.10;;;2.80;;
38715;SDS011;24833;49.324;8.694;2023-04-08T14:21:57;3.60;;;2.83;;
38715;SDS011;24833;49.324;8.694;2023-04-08T14:24:24;3.42;;;2.65;;
38715;SDS011;24833;49.324;8.694;2023-04-08T14:26:51;2.65;;;2.42;;
38715;SDS011;24833;49.324;8.694;2023-04-08T14:29:18;4.97;;;3.10;;
38715;SDS011;24833;49.324;8.694;2023-04-08T14:31:45;2.85;;;2.45;;
38715;SDS011;24833;49.324;8.694;2023-04-08T14:34:12;2.60;;;2.38;;
38715;SDS011;24833;49.324;8.694;2023-04-08T14:36:39;3.92;;;2.42;;
38715;SDS011;24833;49.324;8.694;2023-04-08T14:39:06;3.05;;;2.33;;
38715;SDS011;24833;49.324;8.694;2023-04-08T14:41:33;2.85;;;2.58;;
38715;SDS011;24833;49.324;8.694;2023-04-08T14:44:00;2.67;;;2.25;;
38715;SDS011;24833;49.324;8.694;2023-04-08T14:46:27;2.88;;;2.47;;
38715;SDS011;24833;49.324;8.694;2023-04-08T14:48:54;2.45;;;2.25;;
38715;SDS011;24833;49.324;8.694;2023-04-08T14:51:22;2.92;;;2.30;;
38715;SDS011;24833;49.324;8.694;2023-04-08T14:53:48;2.40;;;2.20;;
38715;SDS011;24833;49.324;8.694;2023-04-08T14:56:15;3.13;;;2.42;;
38715;SDS011;24833;49.324;8.694;2023-04-08T14:58:42;3.28;;;2.50;;
38715;SDS011;24833;49.324;8.694;2023-04-08T15:01:09;3.38;;;2.72;;
38715;SDS011;24833;49.324;8.694;2023-04-08T15:03:37;3.38;;;2.63;;
38715;SDS011;24833;49.324;8.694;2023-04-08T15:06:04;2.92;;;2.63;;
38715;SDS011;24833;49.324;8.694;2023-04-08T15:08:32;3.65;;;2.85;;
38715;SDS011;24833;49.324;8.694;2023-04-08T15:11:00;3.20;;;2.45;;